createdAt,value
2023-01-29T01:07:42.232Z,36.16
2023-01-29T01:08:42.299Z,36.23
2023-01-29T01:09:42.298Z,35.76
2023-01-29T01:10:42.353Z,34.55
2023-01-29T01:11:42.359Z,34.09
2023-01-29T01:12:42.368Z,35.80
2023-01-29T01:13:42.411Z,35.06
2023-01-29T01:14:42.456Z,35.52
2023-01-29T01:15:42.472Z,35.87
2023-01-29T01:16:42.491Z,32.28
2023-01-29T01:17:42.525Z,35.39
2023-01-29T01:18:42.545Z,34.84
2023-01-29T01:19:42.583Z,34.69
2023-01-29T01:20:42.624Z,34.40
2023-01-29T01:28:42.834Z,34.81
2023-01-29T01:29:42.840Z,34.84
2023-01-29T01:30:42.958Z,34.15
2023-01-29T01:31:42.971Z,34.47
2023-01-29T01:32:42.972Z,35.81
2023-01-29T01:33:43.030Z,34.12
2023-01-29T01:34:43.026Z,32.72
2023-01-29T01:35:43.031Z,34.29
2023-01-29T02:34:44.527Z,29.49
2023-01-29T02:35:44.556Z,30.95
2023-01-29T02:36:44.525Z,33.26
2023-01-29T02:37:44.570Z,32.86
2023-01-29T02:38:44.678Z,32.64
2023-01-29T02:39:44.589Z,33.39
2023-01-29T02:40:44.584Z,32.89
2023-01-29T02:41:44.645Z,32.59
2023-01-29T02:42:44.701Z,32.32
2023-01-29T02:43:44.652Z,32.65
2023-01-29T02:44:44.690Z,31.70
2023-01-29T02:45:44.737Z,31.13
2023-01-29T02:46:44.700Z,30.92
2023-01-29T02:47:44.717Z,31.73
2023-01-29T02:48:44.711Z,31.15
2023-01-29T02:49:44.769Z,32.46
2023-01-29T02:50:44.789Z,32.04
2023-01-29T02:51:44.780Z,29.93
2023-01-29T02:52:44.829Z,30.42
2023-01-29T02:53:44.818Z,32.08
2023-01-29T02:54:44.820Z,31.62
2023-01-29T02:55:44.798Z,30.68
2023-01-29T02:56:44.792Z,31.68
2023-01-29T02:57:44.851Z,30.22
2023-01-29T02:58:44.860Z,29.93
2023-01-29T02:59:44.894Z,28.92
2023-01-29T03:00:44.941Z,30.61
2023-01-29T03:01:44.942Z,31.87
2023-01-29T03:02:44.980Z,31.28
2023-01-29T03:03:45.003Z,28.72
2023-01-29T03:04:45.052Z,29.44
2023-01-29T03:05:45.097Z,30.49
2023-01-29T03:06:45.133Z,31.24
2023-01-29T03:07:45.187Z,30.47
2023-01-29T03:08:45.163Z,30.99
2023-01-29T03:09:45.195Z,31.40
2023-01-29T03:10:45.199Z,31.88
2023-01-29T03:11:45.225Z,29.93
2023-01-29T03:12:45.229Z,31.29
2023-01-29T03:13:45.218Z,31.16
2023-01-29T03:14:45.269Z,30.48
2023-01-29T03:15:45.231Z,29.85
2023-01-29T03:16:45.318Z,29.89
2023-01-29T03:17:45.263Z,30.14
2023-01-29T03:18:45.281Z,29.61
2023-01-29T03:19:45.322Z,30.10
2023-01-29T03:20:45.351Z,29.10
2023-01-29T03:21:45.344Z,30.10
2023-01-29T03:22:45.646Z,28.02
2023-01-29T03:23:45.367Z,30.49
2023-01-29T03:24:45.370Z,29.34
2023-01-29T03:25:45.441Z,31.60
2023-01-29T03:26:45.417Z,30.68
2023-01-29T03:27:45.490Z,30.02
2023-01-29T03:28:45.521Z,30.66
2023-01-29T03:29:45.519Z,31.06
2023-01-29T03:30:45.554Z,31.18
2023-01-29T03:31:45.658Z,29.76
2023-01-29T03:32:45.557Z,31.08
2023-01-29T03:33:45.629Z,29.98
2023-01-29T03:34:45.630Z,30.24
2023-01-29T03:35:45.647Z,28.02
2023-01-29T03:36:45.719Z,28.75
2023-01-29T03:37:45.707Z,29.76
2023-01-29T03:38:45.751Z,28.83
2023-01-29T03:39:45.756Z,30.02
2023-01-29T03:40:45.788Z,28.73
2023-01-29T03:41:45.840Z,28.47
2023-01-29T03:42:45.842Z,30.87
2023-01-29T03:43:45.858Z,31.26
2023-01-29T03:44:48.059Z,30.66
2023-01-29T03:45:45.953Z,31.39
2023-01-29T03:46:45.916Z,30.47
2023-01-29T03:47:45.913Z,31.21
2023-01-29T03:48:45.892Z,29.40
2023-01-29T03:49:45.880Z,27.62
2023-01-29T03:50:45.831Z,31.91
2023-01-29T03:51:45.831Z,30.08
2023-01-29T03:52:45.834Z,29.50
2023-01-29T03:53:45.847Z,31.57
2023-01-29T03:54:45.843Z,28.56
2023-01-29T03:55:45.813Z,29.40
2023-01-29T03:56:45.789Z,30.11
2023-01-29T03:57:45.817Z,29.11
2023-01-29T03:58:45.825Z,29.40
2023-01-29T03:59:45.809Z,30.24
2023-01-29T04:00:45.760Z,29.98
2023-01-29T04:01:45.827Z,30.72
2023-01-29T04:02:45.780Z,31.83
2023-01-29T04:03:45.813Z,30.33
2023-01-29T04:04:45.763Z,31.13
2023-01-29T04:05:45.737Z,29.87
2023-01-29T04:06:45.756Z,30.21
2023-01-29T04:07:45.701Z,30.33
2023-01-29T04:08:45.730Z,29.16
2023-01-29T04:09:45.753Z,28.20
2023-01-29T04:10:45.703Z,27.40
2023-01-29T04:11:45.699Z,29.24
2023-01-29T04:12:45.711Z,28.45
2023-01-29T04:13:45.671Z,28.99
2023-01-29T04:14:45.662Z,29.33
2023-01-29T04:15:45.659Z,28.98
2023-01-29T04:16:45.708Z,29.52
2023-01-29T04:17:45.635Z,28.68
2023-01-29T04:18:45.659Z,26.66
2023-01-29T04:19:45.599Z,28.47
2023-01-29T04:20:45.623Z,27.14
2023-01-29T04:21:45.617Z,28.85
2023-01-29T04:22:45.625Z,29.36
2023-01-29T04:23:45.578Z,29.65
2023-01-29T04:24:45.604Z,30.41
2023-01-29T04:25:45.553Z,28.70
2023-01-29T04:26:45.550Z,29.14
2023-01-29T04:27:45.613Z,29.33
2023-01-29T04:28:45.568Z,29.35
2023-01-29T04:29:45.570Z,29.42
2023-01-29T04:30:45.567Z,28.41
2023-01-29T04:31:45.567Z,28.06
2023-01-29T04:32:45.534Z,29.21
2023-01-29T04:33:45.552Z,27.78
2023-01-29T04:34:45.517Z,27.31
2023-01-29T04:35:45.496Z,28.16
2023-01-29T04:36:45.491Z,25.38
2023-01-29T04:37:45.529Z,27.79
2023-01-29T04:38:45.475Z,26.94
2023-01-29T04:39:45.432Z,26.09
2023-01-29T04:40:45.497Z,26.74
2023-01-29T04:41:45.433Z,27.95
2023-01-29T04:42:45.450Z,29.21
2023-01-29T04:43:45.454Z,28.62
2023-01-29T04:44:45.412Z,28.67
2023-01-29T04:45:45.420Z,25.58
2023-01-29T04:46:45.423Z,28.06
2023-01-29T04:47:45.549Z,28.66
2023-01-29T04:48:45.423Z,27.67
2023-01-29T04:49:45.398Z,31.76
2023-01-29T04:50:45.398Z,28.57
2023-01-29T04:51:45.373Z,26.80
2023-01-29T04:52:45.361Z,29.40
2023-01-29T04:53:45.332Z,30.95
2023-01-29T04:54:45.353Z,31.07
2023-01-29T04:55:45.393Z,29.44
2023-01-29T04:56:45.358Z,30.61
2023-01-29T04:57:45.400Z,32.56
2023-01-29T04:58:45.379Z,32.67
2023-01-29T04:59:45.454Z,30.72
2023-01-29T05:00:45.480Z,30.04
2023-01-29T05:01:45.618Z,30.00
2023-01-29T05:02:45.578Z,30.06
2023-01-29T05:03:45.531Z,31.16
2023-01-29T05:04:45.567Z,29.72
2023-01-29T05:05:45.585Z,30.82
2023-01-29T05:06:45.586Z,30.81
2023-01-29T05:07:45.608Z,31.60
2023-01-29T05:08:45.626Z,31.03
2023-01-29T05:09:45.624Z,31.24
2023-01-29T05:10:45.660Z,31.87
2023-01-29T05:11:45.703Z,29.03
2023-01-29T05:12:45.716Z,30.59
2023-01-29T05:13:45.757Z,29.65
2023-01-29T05:14:45.772Z,28.80
2023-01-29T05:15:45.864Z,30.83
2023-01-29T05:16:45.844Z,31.56
2023-01-29T05:17:45.899Z,29.00
2023-01-29T05:18:45.933Z,31.91
2023-01-29T05:19:45.965Z,30.32
2023-01-29T05:20:46.024Z,33.10
2023-01-29T05:21:46.010Z,31.55
2023-01-29T05:22:46.023Z,31.20
2023-01-29T05:23:46.036Z,32.63
2023-01-29T05:26:46.103Z,29.40
2023-01-29T05:27:46.156Z,31.42
2023-01-29T05:28:46.169Z,29.49
2023-01-29T05:29:46.138Z,28.41
2023-01-29T05:30:46.208Z,29.35
2023-01-29T05:31:46.283Z,29.51
2023-01-29T05:32:46.188Z,28.78
2023-01-29T05:33:46.268Z,29.85
2023-01-29T05:34:46.239Z,29.58
2023-01-29T05:35:46.281Z,29.08
2023-01-29T05:36:46.251Z,28.92
2023-01-29T05:37:46.284Z,26.40
2023-01-29T05:38:46.285Z,28.07
2023-01-29T05:39:46.316Z,27.98
2023-01-29T05:40:46.344Z,27.75
2023-01-29T05:41:46.359Z,27.59
2023-01-29T05:43:46.433Z,28.56
2023-01-29T05:44:46.490Z,29.46
2023-01-29T05:45:46.482Z,27.79
2023-01-29T05:46:46.522Z,27.29
2023-01-29T05:47:46.568Z,27.60
2023-01-29T05:48:46.596Z,28.86
2023-01-29T05:49:46.603Z,28.75
2023-01-29T05:50:46.650Z,29.21
2023-01-29T05:51:46.660Z,28.40
2023-01-29T05:52:46.669Z,26.48
2023-01-29T05:53:46.709Z,27.68
2023-01-29T05:54:46.762Z,29.13
2023-01-29T05:55:46.683Z,28.65
2023-01-29T05:56:46.718Z,27.19
2023-01-29T05:57:46.730Z,26.20
2023-01-29T05:58:46.733Z,26.82
2023-01-29T05:59:46.779Z,27.36
2023-01-29T06:00:48.210Z,26.34
2023-01-29T06:01:46.896Z,25.00
2023-01-29T06:02:46.885Z,26.41
2023-01-29T06:03:46.946Z,26.60
2023-01-29T06:04:46.910Z,28.56
2023-01-29T06:05:46.950Z,26.54
2023-01-29T06:24:15.035Z,25.00
2023-01-29T06:25:14.974Z,25.00
2023-01-29T06:26:14.987Z,25.00
2023-01-29T06:27:14.972Z,25.00
2023-01-29T06:28:14.943Z,25.00
2023-01-29T06:29:15.020Z,25.42
2023-01-29T06:30:15.126Z,25.30
2023-01-29T06:31:36.313Z,25.71
2023-01-29T06:32:16.043Z,26.05
2023-01-29T06:33:14.924Z,25.91
2023-01-29T06:34:14.897Z,26.17
2023-01-29T06:35:14.878Z,25.66
2023-01-29T06:36:14.872Z,25.07
2023-01-29T06:37:14.894Z,25.76
2023-01-29T06:38:14.868Z,26.57
2023-01-29T06:39:14.899Z,27.24
2023-01-29T06:40:15.226Z,26.87
2023-01-29T06:41:14.879Z,25.90
2023-01-29T06:42:14.841Z,26.16
2023-01-29T06:43:14.825Z,26.75
2023-01-29T06:44:14.840Z,27.63
2023-01-29T06:45:14.807Z,26.26
2023-01-29T06:46:14.806Z,28.88
2023-01-29T06:47:14.803Z,29.41
2023-01-29T06:48:14.802Z,29.24
2023-01-29T06:49:14.855Z,28.38
2023-01-29T06:50:15.266Z,27.74
2023-01-29T06:51:14.882Z,27.72
2023-01-29T06:52:14.866Z,27.47
2023-01-29T06:53:14.940Z,25.82
2023-01-29T06:54:14.948Z,29.08
2023-01-29T06:55:14.897Z,27.63
2023-01-29T06:56:14.930Z,25.67
2023-01-29T06:57:14.962Z,26.72
2023-01-29T06:58:14.990Z,27.07
2023-01-29T06:59:15.040Z,27.12
2023-01-29T07:00:15.295Z,25.98
2023-01-29T07:01:29.281Z,28.20
2023-01-29T07:02:16.145Z,28.39
2023-01-29T07:03:15.097Z,28.45
2023-01-29T07:04:15.057Z,28.46
2023-01-29T07:05:15.047Z,28.56
2023-01-29T07:06:15.052Z,28.75
2023-01-29T07:07:15.057Z,28.73
2023-01-29T07:08:15.046Z,28.82
2023-01-29T07:09:15.049Z,28.37
2023-01-29T07:10:15.396Z,29.47
2023-01-29T07:11:15.019Z,29.17
2023-01-29T07:12:14.996Z,26.49
2023-01-29T07:13:14.991Z,29.23
2023-01-29T07:14:15.022Z,28.27
2023-01-29T07:15:14.985Z,28.70
2023-01-29T07:16:15.031Z,27.51
2023-01-29T07:17:14.967Z,26.81
2023-01-29T07:18:14.966Z,28.58
2023-01-29T07:19:14.989Z,27.70
2023-01-29T07:20:15.384Z,29.29
2023-01-29T07:21:15.054Z,28.86
2023-01-29T07:22:15.102Z,28.54
2023-01-29T07:23:15.102Z,27.81
2023-01-29T07:24:15.196Z,27.15
2023-01-29T07:25:15.154Z,28.02
2023-01-29T07:26:15.206Z,26.45
2023-01-29T07:27:15.188Z,28.51
2023-01-29T07:28:15.241Z,28.52
2023-01-29T07:29:15.245Z,28.46
2023-01-29T07:30:15.681Z,29.04
2023-01-29T07:31:15.478Z,27.78
2023-01-29T07:32:15.385Z,27.09
2023-01-29T07:33:15.389Z,27.61
2023-01-29T07:34:15.374Z,27.84
2023-01-29T07:35:15.399Z,27.05
2023-01-29T07:36:15.441Z,27.04
2023-01-29T07:37:15.440Z,26.24
2023-01-29T07:38:15.440Z,28.73
2023-01-29T07:39:15.491Z,27.44
2023-01-29T07:40:15.843Z,27.62
2023-01-29T07:41:15.500Z,27.97
2023-01-29T07:42:15.510Z,28.00
2023-01-29T07:43:15.570Z,28.92
2023-01-29T07:44:15.538Z,28.84
2023-01-29T07:45:15.552Z,27.49
2023-01-29T07:46:15.661Z,26.07
2023-01-29T07:47:17.198Z,28.41
2023-01-29T07:48:15.593Z,26.49
2023-01-29T07:49:15.602Z,28.03
2023-01-29T07:50:16.032Z,27.89
2023-01-29T07:51:15.669Z,27.32
2023-01-29T07:52:15.741Z,28.11
2023-01-29T07:53:15.759Z,27.93
2023-01-29T07:54:15.797Z,26.84
2023-01-29T07:55:15.809Z,27.76
2023-01-29T07:56:15.817Z,26.11
2023-01-29T07:57:15.908Z,27.72
2023-01-29T07:58:15.915Z,26.41
2023-01-29T07:59:15.920Z,27.68
2023-01-29T08:00:16.339Z,27.93
2023-01-29T08:01:16.048Z,26.88
2023-01-29T08:02:16.034Z,28.75
2023-01-29T08:03:16.070Z,30.05
2023-01-29T08:04:16.049Z,30.08
2023-01-29T08:05:16.119Z,28.60
2023-01-29T08:06:16.121Z,27.60
2023-01-29T08:07:16.169Z,31.09
2023-01-29T08:08:16.187Z,30.52
2023-01-29T08:09:16.245Z,30.59
2023-01-29T08:10:16.676Z,30.22
2023-01-29T08:11:16.310Z,31.70
2023-01-29T08:12:16.353Z,33.93
2023-01-29T08:13:16.433Z,30.12
2023-01-29T08:14:16.466Z,31.08
2023-01-29T08:15:16.519Z,29.25
2023-01-29T08:16:16.614Z,34.22
2023-01-29T08:17:16.627Z,30.53
2023-01-29T08:18:16.718Z,33.93
2023-01-29T08:19:16.741Z,30.63
2023-01-29T08:20:17.207Z,35.53
2023-01-29T08:21:16.848Z,33.81
2023-01-29T08:22:16.931Z,35.38
2023-01-29T08:23:16.971Z,35.13
2023-01-29T08:24:17.137Z,35.56
2023-01-29T08:25:17.067Z,34.96
2023-01-29T08:26:17.098Z,33.58
2023-01-29T08:27:17.199Z,37.76
2023-01-29T08:28:17.219Z,34.28
2023-01-29T08:29:17.298Z,36.95
2023-01-29T08:30:18.432Z,35.73
2023-01-29T08:31:17.395Z,35.89
2023-01-29T08:32:17.473Z,38.62
2023-01-29T08:33:19.433Z,35.24
2023-01-29T08:34:17.523Z,35.41
2023-01-29T08:35:17.922Z,35.66
2023-01-29T08:36:17.504Z,36.04
2023-01-29T08:37:17.501Z,37.23
2023-01-29T08:38:17.524Z,39.36
2023-01-29T08:39:17.494Z,38.67
2023-01-29T08:40:17.676Z,39.86
2023-01-29T08:41:17.485Z,42.86
2023-01-29T08:42:17.462Z,43.04
2023-01-29T08:43:17.447Z,41.60
2023-01-29T08:44:17.469Z,42.64
2023-01-29T08:45:17.447Z,45.49
2023-01-29T08:46:17.483Z,44.73
2023-01-29T08:47:17.442Z,47.25
2023-01-29T08:48:17.438Z,42.47
2023-01-29T08:49:17.431Z,45.63
2023-01-29T08:50:17.963Z,44.38
2023-01-29T08:51:17.402Z,47.60
2023-01-29T08:52:17.361Z,47.82
2023-01-29T08:53:17.380Z,46.29
2023-01-29T08:54:17.395Z,47.06
2023-01-29T08:55:17.749Z,47.66
2023-01-29T08:56:17.392Z,50.09
2023-01-29T08:57:17.345Z,49.38
2023-01-29T08:58:17.344Z,50.72
2023-01-29T08:59:17.321Z,48.58
2023-01-29T09:00:17.749Z,49.54
2023-01-29T09:01:17.411Z,49.84
2023-01-29T09:02:17.376Z,48.73
2023-01-29T09:03:17.341Z,53.31
2023-01-29T09:04:17.330Z,52.10
2023-01-29T09:05:17.755Z,51.90
2023-01-29T09:06:17.296Z,52.07
2023-01-29T09:07:17.259Z,51.25
2023-01-29T09:08:17.303Z,53.93
2023-01-29T09:09:17.277Z,54.78
2023-01-29T09:10:17.269Z,51.90
2023-01-29T09:11:17.293Z,53.54
2023-01-29T09:12:17.259Z,52.38
2023-01-29T09:13:17.245Z,50.96
2023-01-29T09:14:17.261Z,49.67
2023-01-29T09:15:17.540Z,53.34
2023-01-29T09:16:17.268Z,51.11
2023-01-29T09:17:17.234Z,52.70
2023-01-29T09:18:17.248Z,50.55
2023-01-29T09:19:17.272Z,50.10
2023-01-29T09:20:17.290Z,52.41
2023-01-29T09:21:17.363Z,48.58
2023-01-29T09:22:17.411Z,50.11
2023-01-29T09:23:17.443Z,50.03
2023-01-29T09:24:17.504Z,45.56
2023-01-29T09:25:17.930Z,46.20
2023-01-29T09:26:17.620Z,48.42
2023-01-29T09:27:17.643Z,47.66
2023-01-29T09:28:17.726Z,45.52
2023-01-29T09:29:17.804Z,44.55
2023-01-29T09:30:17.857Z,44.61
2023-01-29T09:31:18.091Z,45.48
2023-01-29T09:32:37.589Z,42.69
2023-01-29T09:33:18.898Z,42.82
2023-01-29T09:34:17.907Z,42.68
2023-01-29T09:35:18.153Z,42.26
2023-01-29T09:36:17.885Z,43.50
2023-01-29T09:37:17.886Z,39.95
2023-01-29T09:38:17.889Z,40.25
2023-01-29T09:39:17.863Z,40.08
2023-01-29T09:40:17.849Z,38.38
2023-01-29T09:41:17.857Z,37.32
2023-01-29T09:42:17.862Z,41.13
2023-01-29T09:43:17.838Z,41.40
2023-01-29T09:44:17.828Z,38.14
2023-01-29T09:45:18.275Z,36.95
2023-01-29T09:46:18.034Z,40.31
2023-01-29T09:47:18.004Z,39.09
2023-01-29T09:48:18.055Z,35.33
2023-01-29T09:49:18.145Z,37.31
2023-01-29T09:50:20.168Z,39.20
2023-01-29T09:51:18.223Z,39.34
2023-01-29T09:52:18.277Z,38.67
2023-01-29T09:53:18.352Z,37.03
2023-01-29T09:54:18.390Z,39.15
2023-01-29T09:55:18.675Z,36.80
2023-01-29T09:56:18.429Z,39.96
2023-01-29T09:57:18.417Z,38.66
2023-01-29T09:58:18.461Z,39.46
2023-01-29T09:59:18.485Z,41.07
2023-01-29T10:00:18.470Z,42.11
2023-01-29T10:01:18.589Z,40.77
2023-01-29T10:02:18.581Z,40.82
2023-01-29T10:03:18.481Z,42.56
2023-01-29T10:04:18.537Z,43.31
2023-01-29T10:05:18.911Z,43.81
2023-01-29T10:06:18.504Z,41.47
2023-01-29T10:07:18.546Z,42.67
2023-01-29T10:08:18.593Z,44.10
2023-01-29T10:09:18.629Z,46.05
2023-01-29T10:10:18.618Z,44.22
2023-01-29T10:11:18.680Z,46.34
2023-01-29T10:12:18.704Z,46.54
2023-01-29T10:13:18.747Z,47.97
2023-01-29T10:14:18.810Z,45.88
2023-01-29T10:15:19.002Z,48.19
2023-01-29T10:16:18.810Z,48.36
2023-01-29T10:17:18.931Z,46.57
2023-01-29T10:18:18.821Z,49.18
2023-01-29T10:19:18.871Z,48.64
2023-01-29T10:20:18.874Z,48.32
2023-01-29T10:21:18.889Z,49.76
2023-01-29T10:22:18.976Z,50.68
2023-01-29T10:23:18.969Z,49.61
2023-01-29T10:24:19.012Z,48.50
2023-01-29T10:25:19.448Z,49.79
2023-01-29T10:26:19.073Z,51.55
2023-01-29T10:27:19.110Z,48.22
2023-01-29T10:28:19.100Z,50.59
2023-01-29T10:29:19.151Z,49.79
2023-01-29T10:30:19.219Z,51.05
2023-01-29T10:31:19.325Z,50.76
2023-01-29T10:32:19.218Z,51.65
2023-01-29T10:33:19.290Z,47.38
2023-01-29T10:34:19.324Z,53.44
2023-01-29T10:35:19.348Z,48.44
2023-01-29T10:36:19.391Z,49.68
2023-01-29T10:37:19.396Z,47.34
2023-01-29T10:38:19.429Z,49.51
2023-01-29T10:39:19.520Z,48.80
2023-01-29T10:40:19.615Z,50.03
2023-01-29T10:41:19.628Z,50.10
2023-01-29T10:42:19.656Z,50.38
2023-01-29T10:43:19.756Z,50.72
2023-01-29T10:44:19.804Z,50.81
2023-01-29T10:45:20.313Z,47.83
2023-01-29T10:46:19.875Z,47.65
2023-01-29T10:47:19.900Z,49.21
2023-01-29T10:48:19.920Z,51.79
2023-01-29T10:49:19.931Z,51.08
2023-01-29T10:50:19.999Z,52.35
2023-01-29T10:51:20.035Z,47.71
2023-01-29T10:52:20.094Z,47.88
2023-01-29T10:53:20.134Z,49.00
2023-01-29T10:54:20.216Z,49.60
2023-01-29T10:55:20.211Z,50.51
2023-01-29T10:56:22.974Z,48.17
2023-01-29T10:57:20.244Z,52.63
2023-01-29T10:58:20.257Z,50.57
2023-01-29T10:59:20.262Z,51.05
2023-01-29T11:00:20.225Z,49.63
2023-01-29T11:01:20.367Z,48.47
2023-01-29T11:02:20.284Z,48.41
2023-01-29T11:03:28.083Z,50.87
2023-01-29T11:04:21.242Z,51.17
2023-01-29T11:05:20.198Z,50.09
2023-01-29T11:06:20.213Z,51.27
2023-01-29T11:07:20.236Z,48.95
2023-01-29T11:08:20.205Z,49.43
2023-01-29T11:09:20.196Z,47.65
2023-01-29T11:10:20.795Z,48.48
2023-01-29T11:11:20.160Z,51.34
2023-01-29T11:12:21.707Z,47.12
2023-01-29T11:13:20.329Z,49.90
2023-01-29T11:14:20.308Z,49.05
2023-01-29T11:15:20.277Z,49.54
2023-01-29T11:16:20.314Z,47.84
2023-01-29T11:17:20.357Z,49.13
2023-01-29T11:18:20.329Z,48.83
2023-01-29T11:19:20.673Z,48.06
2023-01-29T11:20:20.333Z,47.36
2023-01-29T11:21:20.363Z,48.82
2023-01-29T11:22:20.360Z,46.75
2023-01-29T11:23:20.351Z,46.43
2023-01-29T11:24:20.381Z,49.04
2023-01-29T11:25:20.399Z,48.18
2023-01-29T11:26:20.421Z,44.61
2023-01-29T11:27:20.383Z,46.51
2023-01-29T11:28:20.376Z,47.06
2023-01-29T11:29:20.414Z,46.69
2023-01-29T11:30:20.558Z,44.64
2023-01-29T11:31:20.493Z,47.73
2023-01-29T11:32:20.422Z,46.08
2023-01-29T11:33:20.445Z,46.02
2023-01-29T11:34:20.436Z,44.79
2023-01-29T11:35:20.448Z,46.92
2023-01-29T11:36:20.446Z,45.77
2023-01-29T11:37:20.455Z,46.87
2023-01-29T11:38:20.431Z,45.95
2023-01-29T11:39:20.520Z,47.83
2023-01-29T11:40:20.473Z,44.04
2023-01-29T11:41:20.551Z,45.54
2023-01-29T11:42:20.594Z,46.08
2023-01-29T11:43:20.599Z,45.21
2023-01-29T11:44:20.640Z,43.61
2023-01-29T11:45:20.677Z,42.70
2023-01-29T11:46:20.675Z,42.59
2023-01-29T11:47:20.663Z,44.44
2023-01-29T11:48:20.651Z,41.79
2023-01-29T11:49:21.121Z,44.40
2023-01-29T11:50:20.702Z,43.34
2023-01-29T11:51:20.662Z,41.14
2023-01-29T11:52:20.673Z,44.84
2023-01-29T11:53:20.663Z,41.12
2023-01-29T11:54:20.746Z,41.95
2023-01-29T11:55:20.641Z,41.81
2023-01-29T11:56:20.649Z,42.93
2023-01-29T11:57:20.652Z,41.32
2023-01-29T11:58:20.656Z,38.57
2023-01-29T11:59:20.634Z,41.05
2023-01-29T12:00:20.670Z,41.07
2023-01-29T12:01:20.689Z,40.68
2023-01-29T12:02:20.709Z,42.35
2023-01-29T12:03:21.753Z,39.82
2023-01-29T12:04:20.777Z,39.85
2023-01-29T12:05:20.834Z,41.32
2023-01-29T12:06:20.858Z,39.82
2023-01-29T12:07:20.870Z,39.93
2023-01-29T12:08:20.923Z,37.18
2023-01-29T12:09:20.937Z,38.11
2023-01-29T12:10:20.975Z,39.63
2023-01-29T12:11:21.030Z,39.33
2023-01-29T12:12:21.061Z,38.97
2023-01-29T12:13:21.111Z,35.85
2023-01-29T12:14:21.119Z,39.98
2023-01-29T12:15:21.161Z,38.28
2023-01-29T12:16:21.217Z,38.88
2023-01-29T12:17:21.255Z,35.74
2023-01-29T12:18:21.230Z,36.98
2023-01-29T12:19:21.292Z,37.18
2023-01-29T12:20:21.339Z,37.55
2023-01-29T12:21:21.358Z,38.74
2023-01-29T12:22:21.393Z,37.42
2023-01-29T12:23:21.460Z,36.73
2023-01-29T12:24:21.471Z,35.72
2023-01-29T12:25:21.491Z,37.14
2023-01-29T12:26:21.515Z,35.32
2023-01-29T12:27:21.571Z,37.75
2023-01-29T12:28:21.595Z,32.55
2023-01-29T12:29:21.622Z,36.53
2023-01-29T12:30:21.681Z,34.16
2023-01-29T12:31:21.716Z,34.71
2023-01-29T12:32:21.740Z,36.92
2023-01-29T12:33:21.773Z,35.43
2023-01-29T12:34:21.797Z,34.83
2023-01-29T12:35:21.823Z,33.56
2023-01-29T12:36:21.812Z,34.80
2023-01-29T12:37:21.832Z,36.00
2023-01-29T12:38:21.851Z,34.87
2023-01-29T12:39:21.831Z,33.83
2023-01-29T12:40:21.871Z,36.80
2023-01-29T12:41:21.840Z,32.46
2023-01-29T12:42:21.906Z,33.26
2023-01-29T12:43:21.916Z,35.70
2023-01-29T12:44:21.937Z,33.58
2023-01-29T12:45:22.014Z,33.61
2023-01-29T12:46:22.026Z,31.76
2023-01-29T12:47:22.085Z,34.51
2023-01-29T12:48:22.131Z,35.70
2023-01-29T12:49:22.176Z,32.78
2023-01-29T12:50:22.300Z,33.32
2023-01-29T12:51:22.209Z,34.23
2023-01-29T12:52:22.278Z,35.38
2023-01-29T12:53:22.309Z,31.06
2023-01-29T12:54:22.317Z,30.15
2023-01-29T12:55:22.374Z,31.20
2023-01-29T12:56:22.389Z,30.19
2023-01-29T12:57:22.446Z,32.07
2023-01-29T12:58:22.487Z,27.33
2023-01-29T12:59:22.509Z,31.21
2023-01-29T13:00:22.577Z,30.85
2023-01-29T13:01:22.704Z,29.68
2023-01-29T13:02:22.579Z,30.42
2023-01-29T13:03:22.726Z,29.09
2023-01-29T13:04:22.627Z,29.65
2023-01-29T13:05:22.650Z,30.52
2023-01-29T13:06:22.692Z,26.40
2023-01-29T13:07:22.693Z,26.89
2023-01-29T13:08:22.715Z,29.82
2023-01-29T13:09:22.715Z,28.02
2023-01-29T13:10:22.737Z,28.40
2023-01-29T13:11:22.727Z,28.55
2023-01-29T13:12:22.770Z,28.06
2023-01-29T13:13:22.763Z,27.03
2023-01-29T13:14:22.795Z,26.72
2023-01-29T13:15:22.830Z,28.62
2023-01-29T13:16:22.803Z,31.29
2023-01-29T13:17:22.835Z,30.89
2023-01-29T13:18:22.825Z,30.75
2023-01-29T13:19:22.873Z,26.59
2023-01-29T13:20:22.885Z,27.76
2023-01-29T13:21:22.918Z,27.54
2023-01-29T13:22:22.946Z,28.45
2023-01-29T13:23:22.973Z,27.55
2023-01-29T13:24:22.936Z,31.25
2023-01-29T13:25:22.939Z,25.00
2023-01-29T13:26:23.015Z,28.77
2023-01-29T13:27:23.007Z,31.11
2023-01-29T13:28:23.023Z,28.87
2023-01-29T13:29:23.051Z,27.75
2023-01-29T13:30:23.062Z,25.95
2023-01-29T13:31:23.203Z,30.46
2023-01-29T13:32:23.176Z,25.70
2023-01-29T13:33:23.187Z,25.78
2023-01-29T13:34:23.181Z,25.71
2023-01-29T13:35:23.228Z,26.30
2023-01-29T13:36:23.219Z,27.17
2023-01-29T13:37:23.287Z,27.55
2023-01-29T13:38:23.343Z,29.43
2023-01-29T13:39:23.387Z,31.11
2023-01-29T13:40:23.428Z,30.00
2023-01-29T13:41:23.453Z,25.44
2023-01-29T13:42:23.543Z,26.69
2023-01-29T13:43:23.577Z,28.58
2023-01-29T13:44:23.658Z,26.93
2023-01-29T13:45:23.689Z,29.79
2023-01-29T13:46:23.796Z,25.50
2023-01-29T13:47:23.803Z,25.88
2023-01-29T13:48:23.915Z,27.00
2023-01-29T13:49:23.951Z,28.25
2023-01-29T13:50:24.018Z,28.10
2023-01-29T13:51:24.081Z,25.25
2023-01-29T13:52:24.115Z,29.14
2023-01-29T13:53:24.216Z,28.07
2023-01-29T13:54:24.314Z,28.25
2023-01-29T13:55:24.308Z,26.18
2023-01-29T13:56:24.429Z,29.67
2023-01-29T13:57:24.460Z,28.60
2023-01-29T13:58:24.490Z,27.92
2023-01-29T13:59:24.540Z,28.58
2023-01-29T14:00:24.618Z,27.39
2023-01-29T14:01:24.671Z,29.48
2023-01-29T14:02:24.752Z,28.35
2023-01-29T14:03:24.788Z,27.08
2023-01-29T14:04:24.830Z,29.04
2023-01-29T14:05:24.895Z,26.79
2023-01-29T14:06:24.940Z,27.48
2023-01-29T14:07:25.006Z,26.79
2023-01-29T14:08:25.025Z,27.74
2023-01-29T14:09:25.104Z,28.13
2023-01-29T14:10:25.135Z,26.49
2023-01-29T14:11:25.187Z,27.91
2023-01-29T14:12:25.206Z,27.71
2023-01-29T14:13:25.259Z,27.73
2023-01-29T14:14:25.214Z,27.61
2023-01-29T14:15:25.597Z,27.38
2023-01-29T14:16:25.334Z,28.15
2023-01-29T14:17:25.318Z,27.45
2023-01-29T14:18:25.391Z,30.35
2023-01-29T14:19:25.483Z,31.19
2023-01-29T14:20:27.713Z,27.36
2023-01-29T14:21:26.432Z,27.54
2023-01-29T14:22:25.417Z,27.59
2023-01-29T14:23:25.426Z,27.90
2023-01-29T14:24:25.391Z,28.81
2023-01-29T14:25:25.426Z,27.64
2023-01-29T14:26:25.466Z,26.96
2023-01-29T14:27:25.383Z,27.26
2023-01-29T14:28:25.395Z,28.79
2023-01-29T14:29:34.182Z,29.25
2023-01-29T14:30:26.419Z,29.40
2023-01-29T14:31:25.542Z,27.77
2023-01-29T14:32:25.380Z,24.17
2023-01-29T14:33:25.337Z,26.20
2023-01-29T14:34:25.328Z,26.54
2023-01-29T14:35:25.345Z,25.00
2023-01-29T14:36:25.338Z,26.14
2023-01-29T14:37:25.320Z,27.94
2023-01-29T14:38:25.291Z,26.14
2023-01-29T14:39:25.282Z,26.96
2023-01-29T14:40:25.302Z,27.53
2023-01-29T14:41:25.266Z,27.98
2023-01-29T14:42:25.287Z,27.37
2023-01-29T14:43:25.273Z,28.35
2023-01-29T14:44:25.257Z,25.75
2023-01-29T14:45:25.263Z,26.53
2023-01-29T14:46:25.302Z,27.22
2023-01-29T14:47:25.236Z,26.81
2023-01-29T14:48:25.208Z,26.91
2023-01-29T14:49:25.227Z,26.32
2023-01-29T14:50:25.199Z,28.16
2023-01-29T14:51:25.215Z,29.09
2023-01-29T14:52:25.196Z,29.11
2023-01-29T14:53:25.221Z,28.56
2023-01-29T14:54:25.165Z,26.99
2023-01-29T14:55:25.193Z,25.10
2023-01-29T14:56:25.168Z,25.57
2023-01-29T14:57:25.166Z,28.83
2023-01-29T14:59:25.177Z,28.18
2023-01-29T15:00:25.166Z,26.68
2023-01-29T15:01:25.246Z,27.35
2023-01-29T15:02:25.224Z,27.55
2023-01-29T15:03:25.139Z,28.04
2023-01-29T15:04:25.162Z,30.45
2023-01-29T15:05:25.088Z,25.99
2023-01-29T15:06:25.108Z,28.82
2023-01-29T15:07:25.110Z,26.94
2023-01-29T15:08:25.145Z,29.75
2023-01-29T15:09:32.767Z,28.05
2023-01-29T15:10:26.176Z,28.23
2023-01-29T15:11:25.173Z,27.45
2023-01-29T15:12:25.186Z,28.64
2023-01-29T15:13:25.159Z,27.45
2023-01-29T15:14:25.283Z,24.90
2023-01-29T15:15:27.266Z,27.29
2023-01-29T15:16:25.161Z,28.26
2023-01-29T15:17:25.141Z,27.82
2023-01-29T15:18:25.116Z,28.63
2023-01-29T15:19:25.203Z,28.35
2023-01-29T15:20:25.249Z,29.34
2023-01-29T15:21:25.302Z,26.88
2023-01-29T15:22:25.377Z,28.73
2023-01-29T15:23:25.381Z,27.96
2023-01-29T15:24:25.410Z,25.53
2023-01-29T15:25:25.433Z,26.35
2023-01-29T15:26:27.175Z,26.39